Wintersville, Ohio
Current Conditions -  °F | °C
As of 3:49 AM on Friday 28 Nov 2014 (Local Time) from KHLG Reporting Station
Light Snow Light Snow  
Wind Chill: 16°   Ceiling: 2100
Heat Index: 27°   Visibility: 5mi
Dew Point: 21°   Wind: 13mph
Humidity: 80%   Direction: 270°W
Pressure: 30.26"   Gusts: NA
Location:  40.3638°N, 80.7135°W
Report Text: KHLG 280849Z AUTO 27011KT 5SM -SN FEW013 BKN021 OVC046 M03/M06 A3026 RMK AO2 SNB45 P0000
Loading
Personal Weather Stations






























Interactive Weather Map New forecast layout! Learn more

10-Day Weather Forecast

Advertisements
Track Severe Weather on mobile